createdAt,value
2023-04-20T00:00:30.924Z,2.80
2023-04-20T00:01:32.354Z,2.80
2023-04-20T00:02:33.749Z,2.93
2023-04-20T00:03:35.366Z,3.20
2023-04-20T00:04:36.971Z,3.07
2023-04-20T00:05:38.347Z,2.83
2023-04-20T00:06:39.614Z,2.90
2023-04-20T00:07:41.973Z,2.70
2023-04-20T00:08:44.067Z,2.90
2023-04-20T00:09:45.407Z,2.93
2023-04-20T00:10:46.901Z,2.73
2023-04-20T00:11:48.497Z,2.80
2023-04-20T00:12:49.816Z,3.13
2023-04-20T00:13:51.116Z,2.80
2023-04-20T00:14:53.397Z,3.17
2023-04-20T00:15:54.698Z,2.70
2023-04-20T00:16:56.072Z,2.90
2023-04-20T00:17:57.386Z,3.30
2023-04-20T00:18:59.498Z,2.83
2023-04-20T00:20:00.974Z,2.80
2023-04-20T00:21:02.364Z,2.97
2023-04-20T00:22:03.661Z,3.20
2023-04-20T00:23:05.153Z,3.13
2023-04-20T00:24:07.070Z,2.83
2023-04-20T00:25:08.659Z,4.00
2023-04-20T00:26:10.479Z,3.07
2023-04-20T00:27:12.173Z,3.30
2023-04-20T00:28:13.484Z,3.13
2023-04-20T00:29:15.913Z,3.63
2023-04-20T00:30:17.348Z,3.27
2023-04-20T00:31:19.304Z,4.00
2023-04-20T00:32:21.282Z,3.80
2023-04-20T00:33:23.274Z,4.33
2023-04-20T00:34:24.690Z,4.37
2023-04-20T00:35:26.089Z,4.60
2023-04-20T00:36:27.458Z,4.13
2023-04-20T00:37:28.871Z,4.50
2023-04-20T00:38:30.303Z,4.00
2023-04-20T00:39:34.099Z,4.13
2023-04-20T00:40:37.406Z,3.73
2023-04-20T00:41:39.106Z,4.40
2023-04-20T00:42:41.408Z,3.60
2023-04-20T00:43:49.838Z,3.70
2023-04-20T00:44:53.657Z,3.60
2023-04-20T00:45:56.630Z,3.20
2023-04-20T00:46:58.029Z,3.40
2023-04-20T00:48:00.617Z,3.50
2023-04-20T00:49:02.332Z,4.43
2023-04-20T00:50:03.747Z,5.27
2023-04-20T00:51:05.389Z,6.53
2023-04-20T00:52:06.769Z,9.43
2023-04-20T00:53:08.824Z,9.00
2023-04-20T00:54:11.442Z,8.20
2023-04-20T00:55:12.793Z,8.40
2023-04-20T00:56:16.563Z,8.53
2023-04-20T00:57:19.149Z,6.70
2023-04-20T00:58:21.398Z,6.30
2023-04-20T00:59:22.790Z,5.50
2023-04-20T01:00:24.500Z,4.70
2023-04-20T01:01:29.048Z,4.83
2023-04-20T01:02:30.732Z,3.90
2023-04-20T01:03:32.938Z,4.00
2023-04-20T01:04:39.884Z,3.70
2023-04-20T01:05:41.523Z,4.20
2023-04-20T01:06:42.940Z,3.63
2023-04-20T01:07:44.329Z,3.63
2023-04-20T01:08:49.251Z,3.37
2023-04-20T01:09:50.582Z,3.00
2023-04-20T01:10:51.962Z,3.10
2023-04-20T01:11:53.278Z,3.33
2023-04-20T01:12:54.610Z,3.40
2023-04-20T01:13:55.937Z,3.00
2023-04-20T01:14:57.254Z,3.37
2023-04-20T01:16:00.357Z,3.10
2023-04-20T01:17:05.850Z,3.47
2023-04-20T01:18:07.308Z,3.37
2023-04-20T01:19:08.585Z,3.60
2023-04-20T01:20:13.511Z,3.30
2023-04-20T01:21:16.714Z,3.27
2023-04-20T01:22:19.257Z,3.27
2023-04-20T01:23:20.856Z,2.90
2023-04-20T01:24:22.168Z,3.80
2023-04-20T01:25:23.518Z,3.90
2023-04-20T01:26:25.738Z,3.43
2023-04-20T01:27:27.142Z,3.53
2023-04-20T01:28:28.598Z,3.30
2023-04-20T01:29:30.081Z,3.40
2023-04-20T01:30:31.944Z,3.27
2023-04-20T01:31:33.510Z,3.50
2023-04-20T01:32:35.394Z,3.30
2023-04-20T01:33:37.412Z,3.20
2023-04-20T01:34:38.885Z,3.40
2023-04-20T01:35:42.155Z,3.80
2023-04-20T01:36:44.407Z,3.57
2023-04-20T01:37:45.983Z,3.63
2023-04-20T01:38:47.562Z,3.30
2023-04-20T01:39:49.154Z,3.50
2023-04-20T01:40:50.783Z,3.50
2023-04-20T01:41:52.124Z,3.13
2023-04-20T01:42:53.548Z,3.37
2023-04-20T01:43:57.260Z,3.30
2023-04-20T01:44:58.600Z,3.77
2023-04-20T01:46:00.003Z,3.53
2023-04-20T01:47:01.549Z,4.03
2023-04-20T01:48:03.074Z,3.47
2023-04-20T01:49:04.423Z,3.90
2023-04-20T01:50:06.009Z,3.00
2023-04-20T01:51:08.761Z,3.70
2023-04-20T01:52:10.237Z,3.53
2023-04-20T01:53:13.540Z,3.60
2023-04-20T01:54:14.904Z,3.40
2023-04-20T01:55:17.857Z,3.40
2023-04-20T01:56:20.401Z,3.67
2023-04-20T01:57:21.805Z,3.50
2023-04-20T01:58:23.197Z,3.33
2023-04-20T01:59:24.656Z,3.40
2023-04-20T02:00:25.953Z,3.50
2023-04-20T02:01:27.474Z,3.33
2023-04-20T02:02:29.055Z,3.43
2023-04-20T02:03:30.823Z,3.27
2023-04-20T02:04:32.380Z,3.53
2023-04-20T02:05:33.706Z,3.07
2023-04-20T02:06:35.174Z,3.30
2023-04-20T02:07:36.595Z,3.50
2023-04-20T02:08:38.356Z,3.13
2023-04-20T02:09:42.307Z,3.40
2023-04-20T02:10:44.568Z,3.60
2023-04-20T02:11:45.992Z,3.30
2023-04-20T02:12:47.986Z,3.27
2023-04-20T02:13:49.355Z,3.20
2023-04-20T02:14:50.774Z,3.70
2023-04-20T02:15:52.383Z,3.60
2023-04-20T02:16:53.923Z,3.23
2023-04-20T02:17:55.379Z,3.50
2023-04-20T02:18:56.848Z,3.70
2023-04-20T02:19:58.291Z,4.00
2023-04-20T02:21:00.820Z,3.60
2023-04-20T02:22:02.276Z,3.63
2023-04-20T02:23:03.955Z,3.37
2023-04-20T02:24:06.299Z,3.50
2023-04-20T02:25:08.815Z,3.77
2023-04-20T02:26:11.740Z,3.50
2023-04-20T02:27:14.905Z,4.10
2023-04-20T02:28:16.253Z,3.63
2023-04-20T02:29:17.934Z,3.47
2023-04-20T02:30:19.413Z,3.80
2023-04-20T02:31:20.787Z,3.50
2023-04-20T02:32:22.171Z,3.73
2023-04-20T02:33:24.188Z,3.57
2023-04-20T02:34:28.065Z,3.90
2023-04-20T02:35:31.558Z,3.50
2023-04-20T02:36:32.936Z,3.90
2023-04-20T02:37:34.327Z,3.50
2023-04-20T02:38:36.018Z,3.47
2023-04-20T02:39:37.308Z,4.53
2023-04-20T02:40:38.633Z,3.43
2023-04-20T02:41:40.690Z,3.53
2023-04-20T02:42:42.028Z,3.80
2023-04-20T02:43:44.858Z,3.60
2023-04-20T02:44:46.611Z,4.07
2023-04-20T02:45:49.047Z,3.40
2023-04-20T02:46:50.660Z,3.50
2023-04-20T02:47:52.653Z,3.77
2023-04-20T02:48:55.497Z,3.57
2023-04-20T02:49:59.680Z,3.60
2023-04-20T02:51:01.240Z,3.63
2023-04-20T02:52:07.657Z,4.30
2023-04-20T02:53:09.101Z,3.73
2023-04-20T02:54:11.587Z,3.53
2023-04-20T02:55:13.156Z,3.40
2023-04-20T02:56:15.655Z,3.90
2023-04-20T02:57:19.415Z,3.93
2023-04-20T02:58:20.953Z,3.70
2023-04-20T02:59:57.385Z,3.60
2023-04-20T03:01:02.861Z,3.30
2023-04-20T03:02:05.380Z,3.20
2023-04-20T03:03:06.974Z,3.40
2023-04-20T03:04:08.772Z,3.53
2023-04-20T03:05:14.606Z,3.57
2023-04-20T03:06:18.629Z,3.87
2023-04-20T03:07:28.747Z,3.90
2023-04-20T03:08:30.553Z,3.93
2023-04-20T03:09:37.112Z,3.80
2023-04-20T03:10:48.975Z,4.00
2023-04-20T03:11:54.405Z,3.53
2023-04-20T03:13:16.915Z,3.77
2023-04-20T03:14:31.326Z,4.50
2023-04-20T03:15:33.632Z,3.70
2023-04-20T03:16:49.694Z,4.43
2023-04-20T03:17:51.261Z,4.10
2023-04-20T03:18:53.271Z,4.13
2023-04-20T03:19:54.658Z,4.30
2023-04-20T03:20:56.221Z,4.03
2023-04-20T03:21:57.565Z,3.80
2023-04-20T03:22:58.993Z,4.27
2023-04-20T03:24:01.615Z,4.40
2023-04-20T03:25:03.469Z,3.80
2023-04-20T03:26:25.490Z,3.57
2023-04-20T03:27:48.254Z,3.53
2023-04-20T03:28:51.058Z,3.40
2023-04-20T03:29:56.252Z,4.10
2023-04-20T03:30:58.094Z,3.60
2023-04-20T03:31:59.583Z,3.97
2023-04-20T03:33:01.313Z,3.80
2023-04-20T03:34:03.086Z,4.00
2023-04-20T03:35:05.401Z,4.00
2023-04-20T03:36:07.106Z,3.83
2023-04-20T03:37:08.448Z,3.70
2023-04-20T03:38:10.119Z,4.37
2023-04-20T03:39:11.537Z,3.87
2023-04-20T03:40:13.318Z,3.90
2023-04-20T03:41:14.845Z,4.30
2023-04-20T03:42:16.183Z,4.20
2023-04-20T03:43:17.541Z,4.10
2023-04-20T03:44:18.883Z,4.50
2023-04-20T03:45:20.287Z,3.97
2023-04-20T03:46:23.871Z,4.80
2023-04-20T03:47:25.329Z,4.03
2023-04-20T03:48:27.862Z,3.50
2023-04-20T03:49:29.384Z,3.87
2023-04-20T03:50:30.787Z,4.10
2023-04-20T03:51:32.657Z,4.37
2023-04-20T03:52:34.072Z,4.03
2023-04-20T03:53:39.685Z,4.30
2023-04-20T03:54:42.863Z,3.90
2023-04-20T03:55:47.152Z,4.17
2023-04-20T03:56:53.514Z,3.70
2023-04-20T03:57:56.041Z,3.90
2023-04-20T03:58:58.651Z,3.50
2023-04-20T04:00:01.079Z,3.70
2023-04-20T04:01:08.740Z,3.80
2023-04-20T04:02:13.887Z,3.63
2023-04-20T04:03:18.147Z,3.40
2023-04-20T04:04:20.049Z,3.73
2023-04-20T04:05:21.704Z,4.47
2023-04-20T04:06:24.426Z,3.77
2023-04-20T04:07:26.702Z,3.70
2023-04-20T04:08:31.483Z,3.70
2023-04-20T04:09:33.276Z,3.30
2023-04-20T04:10:34.637Z,4.03
2023-04-20T04:11:35.976Z,3.60
2023-04-20T04:12:37.320Z,3.60
2023-04-20T04:13:38.999Z,3.80
2023-04-20T04:14:42.759Z,3.50
2023-04-20T04:15:46.209Z,3.73
2023-04-20T04:16:49.814Z,3.87
2023-04-20T04:17:53.178Z,3.60
2023-04-20T04:18:54.548Z,3.50
2023-04-20T04:19:55.861Z,4.10
2023-04-20T04:20:57.282Z,3.60
2023-04-20T04:21:58.649Z,3.80
2023-04-20T04:23:00.037Z,3.73
2023-04-20T04:24:07.712Z,3.77
2023-04-20T04:25:18.347Z,3.97
2023-04-20T04:26:24.512Z,3.70
2023-04-20T04:27:29.823Z,4.10
2023-04-20T04:28:31.616Z,4.10
2023-04-20T04:29:49.877Z,4.30
2023-04-20T04:30:54.159Z,4.43
2023-04-20T04:31:55.538Z,4.13
2023-04-20T04:32:57.600Z,5.03
2023-04-20T04:33:58.976Z,4.70
2023-04-20T04:35:05.838Z,4.87
2023-04-20T04:36:07.958Z,4.77
2023-04-20T04:37:09.956Z,5.00
2023-04-20T04:38:18.852Z,4.53
2023-04-20T04:39:23.195Z,4.27
2023-04-20T04:40:39.714Z,4.47
2023-04-20T04:41:42.600Z,4.50
2023-04-20T04:43:01.047Z,4.83
2023-04-20T04:44:03.479Z,4.00
2023-04-20T04:45:05.971Z,4.50
2023-04-20T04:46:10.158Z,4.50
2023-04-20T04:47:14.636Z,4.33
2023-04-20T04:48:16.005Z,4.57
2023-04-20T04:49:17.802Z,4.13
2023-04-20T04:50:19.395Z,4.33
2023-04-20T04:51:20.771Z,4.10
2023-04-20T04:52:22.738Z,4.00
2023-04-20T04:53:24.117Z,4.37
2023-04-20T04:54:25.468Z,4.57
2023-04-20T04:55:26.903Z,4.03
2023-04-20T04:56:28.664Z,4.40
2023-04-20T04:57:30.524Z,4.60
2023-04-20T04:58:32.606Z,4.40
2023-04-20T04:59:33.974Z,4.30
2023-04-20T05:00:35.827Z,4.43
2023-04-20T05:01:37.250Z,4.90
2023-04-20T05:02:39.049Z,4.27
2023-04-20T05:03:40.955Z,4.17
2023-04-20T05:04:42.472Z,4.50
2023-04-20T05:05:43.889Z,4.53
2023-04-20T05:06:45.263Z,4.63
2023-04-20T05:07:46.786Z,4.37
2023-04-20T05:08:48.322Z,4.90
2023-04-20T05:09:49.653Z,4.93
2023-04-20T05:10:50.947Z,4.73
2023-04-20T05:11:52.325Z,4.80
2023-04-20T05:12:53.815Z,4.50
2023-04-20T05:13:55.256Z,4.60
2023-04-20T05:14:56.561Z,4.47
2023-04-20T05:15:58.027Z,4.77
2023-04-20T05:16:59.912Z,5.00
2023-04-20T05:18:02.370Z,4.67
2023-04-20T05:19:03.992Z,4.47
2023-04-20T05:20:06.816Z,4.60
2023-04-20T05:21:08.157Z,4.70
2023-04-20T05:22:09.473Z,4.60
2023-04-20T05:23:10.924Z,4.27
2023-04-20T05:24:12.285Z,4.80
2023-04-20T05:25:14.165Z,4.23
2023-04-20T05:26:15.699Z,4.13
2023-04-20T05:27:17.080Z,4.60
2023-04-20T05:28:18.692Z,4.20
2023-04-20T05:29:20.009Z,4.27
2023-04-20T05:30:22.223Z,4.97
2023-04-20T05:31:24.017Z,4.80
2023-04-20T05:32:25.631Z,4.50
2023-04-20T05:33:29.499Z,5.07
2023-04-20T05:34:31.192Z,5.03
2023-04-20T05:35:32.567Z,4.50
2023-04-20T05:36:37.175Z,4.77
2023-04-20T05:37:39.259Z,4.87
2023-04-20T05:38:40.574Z,5.10
2023-04-20T05:39:41.994Z,4.80
2023-04-20T05:40:43.443Z,5.17
2023-04-20T05:41:44.825Z,5.03
2023-04-20T05:42:46.126Z,5.40
2023-04-20T05:43:47.528Z,5.10
2023-04-20T05:44:48.893Z,5.20
2023-04-20T05:45:50.707Z,5.10
2023-04-20T05:46:52.081Z,5.10
2023-04-20T05:47:54.188Z,5.00
2023-04-20T05:48:55.846Z,5.23
2023-04-20T05:49:57.179Z,5.53
2023-04-20T05:50:58.739Z,5.37
2023-04-20T05:52:01.276Z,5.50
2023-04-20T05:53:02.720Z,5.00
2023-04-20T05:54:04.182Z,4.70
2023-04-20T05:55:05.817Z,5.27
2023-04-20T05:56:07.442Z,4.63
2023-04-20T05:57:08.773Z,4.70
2023-04-20T05:58:10.311Z,4.27
2023-04-20T05:59:11.686Z,4.73
2023-04-20T06:00:14.115Z,4.63
2023-04-20T06:01:15.528Z,4.53
2023-04-20T06:02:17.025Z,4.20
2023-04-20T06:03:22.623Z,4.70
2023-04-20T06:04:28.384Z,4.63
2023-04-20T06:05:29.911Z,4.50
2023-04-20T06:06:31.438Z,4.20
2023-04-20T06:07:32.861Z,4.80
2023-04-20T06:08:34.224Z,4.37
2023-04-20T06:09:35.572Z,4.67
2023-04-20T06:10:36.991Z,4.50
2023-04-20T06:11:38.590Z,4.37
2023-04-20T06:12:47.074Z,4.60
2023-04-20T06:13:48.576Z,4.53
2023-04-20T06:14:50.164Z,4.00
2023-04-20T06:15:52.864Z,4.63
2023-04-20T06:16:54.289Z,4.20
2023-04-20T06:17:55.727Z,4.50
2023-04-20T06:18:57.080Z,3.90
2023-04-20T06:19:58.893Z,4.57
2023-04-20T06:21:01.681Z,4.20
2023-04-20T06:22:09.596Z,4.90
2023-04-20T06:23:11.715Z,4.60
2023-04-20T06:24:13.105Z,4.50
2023-04-20T06:25:15.419Z,4.70
2023-04-20T06:26:16.824Z,4.53
2023-04-20T06:27:18.135Z,4.67
2023-04-20T06:28:19.471Z,4.63
2023-04-20T06:29:20.813Z,4.70
2023-04-20T06:30:22.178Z,4.87
2023-04-20T06:31:23.584Z,4.20
2023-04-20T06:32:24.980Z,4.60
2023-04-20T06:33:26.378Z,4.50
2023-04-20T06:34:27.836Z,4.97
2023-04-20T06:35:29.228Z,4.77
2023-04-20T06:36:31.206Z,4.57
2023-04-20T06:37:32.686Z,4.53
2023-04-20T06:38:34.343Z,4.50
2023-04-20T06:39:35.866Z,4.40
2023-04-20T06:40:37.167Z,4.80
2023-04-20T06:41:39.126Z,4.57
2023-04-20T06:42:41.334Z,4.37
2023-04-20T06:43:42.671Z,4.70
2023-04-20T06:44:44.034Z,4.80
2023-04-20T06:45:45.757Z,4.60
2023-04-20T06:46:47.218Z,4.60
2023-04-20T06:47:48.843Z,4.70
2023-04-20T06:48:50.264Z,4.60
2023-04-20T06:49:51.710Z,4.50
2023-04-20T06:50:53.081Z,4.53
2023-04-20T06:51:54.397Z,4.80
2023-04-20T06:52:55.888Z,4.73
2023-04-20T06:53:57.160Z,4.83
2023-04-20T06:54:59.485Z,5.10
2023-04-20T06:56:00.793Z,4.90
2023-04-20T06:57:02.076Z,5.20
2023-04-20T06:58:03.470Z,4.83
2023-04-20T06:59:04.825Z,4.77
2023-04-20T07:00:08.450Z,4.90
2023-04-20T07:01:09.918Z,5.40
2023-04-20T07:02:11.436Z,4.97
2023-04-20T07:03:13.097Z,5.10
2023-04-20T07:04:14.635Z,4.30
2023-04-20T07:05:16.387Z,4.83
2023-04-20T07:06:17.784Z,4.70
2023-04-20T07:07:19.105Z,4.43
2023-04-20T07:08:20.537Z,4.67
2023-04-20T07:09:22.970Z,4.43
2023-04-20T07:10:24.338Z,4.90
2023-04-20T07:11:25.634Z,4.83
2023-04-20T07:12:27.454Z,4.87
2023-04-20T07:13:33.966Z,5.20
2023-04-20T07:14:35.528Z,4.60
2023-04-20T07:15:37.055Z,4.73
2023-04-20T07:16:38.390Z,5.17
2023-04-20T07:17:39.944Z,4.70
2023-04-20T07:18:41.298Z,4.63
2023-04-20T07:19:42.775Z,5.10
2023-04-20T07:20:44.107Z,4.90
2023-04-20T07:21:45.471Z,4.70
2023-04-20T07:22:47.859Z,5.13
2023-04-20T07:23:49.565Z,5.17
2023-04-20T07:24:51.649Z,4.90
2023-04-20T07:25:52.941Z,5.20
2023-04-20T07:26:55.536Z,4.87
2023-04-20T07:27:56.858Z,4.53
2023-04-20T07:28:58.194Z,4.80
2023-04-20T07:29:59.573Z,4.77
2023-04-20T07:31:00.983Z,4.97
2023-04-20T07:32:02.300Z,5.20
2023-04-20T07:33:03.740Z,5.00
2023-04-20T07:34:05.189Z,4.67
2023-04-20T07:35:06.775Z,4.63
2023-04-20T07:36:08.180Z,5.00
2023-04-20T07:37:09.503Z,5.07
2023-04-20T07:38:10.821Z,5.07
2023-04-20T07:39:12.173Z,4.90
2023-04-20T07:40:13.638Z,5.73
2023-04-20T07:41:15.302Z,4.77
2023-04-20T07:42:16.696Z,5.17
2023-04-20T07:43:17.990Z,5.27
2023-04-20T07:44:19.285Z,4.80
2023-04-20T07:45:21.839Z,5.47
2023-04-20T07:46:23.352Z,5.23
2023-04-20T07:47:25.013Z,4.90
2023-04-20T07:48:26.403Z,5.33
2023-04-20T07:49:27.771Z,5.57
2023-04-20T07:50:29.163Z,4.90
2023-04-20T07:51:32.245Z,4.47
2023-04-20T07:52:33.798Z,5.20
2023-04-20T07:53:35.524Z,5.10
2023-04-20T07:54:36.865Z,4.70
2023-04-20T07:55:38.198Z,5.17
2023-04-20T07:56:39.515Z,4.93
2023-04-20T07:57:41.587Z,4.70
2023-04-20T07:58:42.947Z,4.87
2023-04-20T07:59:45.460Z,4.90
2023-04-20T08:00:47.319Z,4.57
2023-04-20T08:01:48.675Z,4.63
2023-04-20T08:02:50.218Z,5.07
2023-04-20T08:03:52.498Z,4.70
2023-04-20T08:04:54.539Z,4.83
2023-04-20T08:05:56.222Z,5.13
2023-04-20T08:06:57.700Z,5.47
2023-04-20T08:07:59.313Z,4.47
2023-04-20T08:09:00.706Z,4.47
2023-04-20T08:10:02.876Z,4.90
2023-04-20T08:11:04.411Z,4.70
2023-04-20T08:12:05.824Z,4.47
2023-04-20T08:13:08.111Z,5.03
2023-04-20T08:14:09.502Z,4.80
2023-04-20T08:15:11.120Z,4.97
2023-04-20T08:16:12.535Z,4.67
2023-04-20T08:17:13.962Z,4.73
2023-04-20T08:18:15.406Z,4.63
2023-04-20T08:19:16.746Z,4.57
2023-04-20T08:20:18.228Z,5.53
2023-04-20T08:21:25.298Z,5.00
2023-04-20T08:22:29.916Z,5.00
2023-04-20T08:23:31.278Z,4.57
2023-04-20T08:24:32.648Z,4.50
2023-04-20T08:25:34.056Z,5.70
2023-04-20T08:26:35.686Z,5.40
2023-04-20T08:27:37.013Z,4.80
2023-04-20T08:28:38.347Z,4.60
2023-04-20T08:29:39.787Z,5.17
2023-04-20T08:30:41.193Z,4.77
2023-04-20T08:31:42.557Z,4.70
2023-04-20T08:32:44.054Z,4.83
2023-04-20T08:33:46.285Z,4.70
2023-04-20T08:34:48.332Z,4.97
2023-04-20T08:35:52.672Z,5.10
2023-04-20T08:36:54.058Z,5.13
2023-04-20T08:37:55.593Z,4.70
2023-04-20T08:38:58.239Z,5.10
2023-04-20T08:39:59.679Z,4.93
2023-04-20T08:41:01.295Z,5.30
2023-04-20T08:42:03.189Z,5.07
2023-04-20T08:43:04.489Z,5.30
2023-04-20T08:44:06.788Z,5.20
2023-04-20T08:45:08.354Z,5.70
2023-04-20T08:46:09.756Z,5.50
2023-04-20T08:47:11.929Z,5.37
2023-04-20T08:48:13.336Z,5.27
2023-04-20T08:49:18.181Z,5.30
2023-04-20T08:50:20.199Z,5.70
2023-04-20T08:51:22.108Z,6.07
2023-04-20T08:52:23.470Z,5.40
2023-04-20T08:53:24.796Z,5.60
2023-04-20T08:54:26.164Z,5.40
2023-04-20T08:55:27.568Z,5.10
2023-04-20T08:56:33.594Z,4.90
2023-04-20T08:57:34.914Z,5.17
2023-04-20T08:58:38.461Z,5.40
2023-04-20T08:59:39.870Z,4.83
2023-04-20T09:00:47.749Z,5.27
2023-04-20T09:01:49.142Z,5.10
2023-04-20T09:02:51.713Z,4.87
2023-04-20T09:03:53.395Z,5.43
2023-04-20T09:05:05.142Z,5.43
2023-04-20T09:06:13.735Z,5.67
2023-04-20T09:07:19.468Z,6.50
2023-04-20T09:08:20.769Z,5.50
2023-04-20T09:09:22.930Z,5.70
2023-04-20T09:10:24.770Z,4.73
2023-04-20T09:11:27.958Z,4.97
2023-04-20T09:12:39.968Z,4.93
2023-04-20T09:13:41.260Z,5.00
2023-04-20T09:14:43.566Z,5.37
2023-04-20T09:15:44.944Z,5.03
2023-04-20T09:16:51.112Z,5.20
2023-04-20T09:17:52.564Z,4.73
2023-04-20T09:18:54.463Z,5.00
2023-04-20T09:19:55.746Z,4.70
2023-04-20T09:20:57.299Z,5.27
2023-04-20T09:22:00.285Z,4.50
2023-04-20T09:23:14.252Z,5.37
2023-04-20T09:24:16.092Z,5.07
2023-04-20T09:25:18.029Z,4.50
2023-04-20T09:26:19.364Z,4.90
2023-04-20T09:27:22.563Z,4.80
2023-04-20T09:28:23.929Z,5.13
2023-04-20T09:29:28.028Z,4.97
2023-04-20T09:30:46.640Z,4.87
2023-04-20T09:31:48.325Z,4.70
2023-04-20T09:33:00.288Z,4.43
2023-04-20T09:34:02.393Z,4.93
2023-04-20T09:35:03.981Z,4.90
2023-04-20T09:36:06.290Z,5.07
2023-04-20T09:37:09.016Z,5.10
2023-04-20T09:38:11.200Z,4.90
2023-04-20T09:39:13.877Z,4.53
2023-04-20T09:40:16.444Z,4.50
2023-04-20T09:41:18.208Z,4.63
2023-04-20T09:42:20.062Z,4.50
2023-04-20T09:43:23.975Z,5.10
2023-04-20T09:44:25.339Z,4.43
2023-04-20T09:45:27.182Z,4.40
2023-04-20T09:46:29.668Z,4.77
2023-04-20T09:47:31.360Z,5.50
2023-04-20T09:48:34.588Z,4.87
2023-04-20T09:49:35.917Z,5.27
2023-04-20T09:50:48.507Z,5.03
2023-04-20T09:51:51.003Z,5.17
2023-04-20T09:52:52.323Z,5.17
2023-04-20T09:53:57.249Z,4.93
2023-04-20T09:54:58.657Z,4.60
2023-04-20T09:56:01.168Z,5.23
2023-04-20T09:57:03.362Z,5.60
2023-04-20T09:58:04.922Z,4.70
2023-04-20T09:59:07.066Z,5.33
2023-04-20T10:00:12.528Z,4.90
2023-04-20T10:01:14.302Z,4.70
2023-04-20T10:02:15.976Z,5.23
2023-04-20T10:03:18.452Z,5.03
2023-04-20T10:04:20.384Z,5.37
2023-04-20T10:05:32.799Z,4.50
2023-04-20T10:06:35.809Z,4.77
2023-04-20T10:07:38.644Z,4.40
2023-04-20T10:08:41.924Z,5.03
2023-04-20T10:09:46.311Z,4.90
2023-04-20T10:10:49.353Z,4.87
2023-04-20T10:11:53.958Z,4.87
2023-04-20T10:13:03.640Z,6.03
2023-04-20T10:14:25.594Z,5.17
2023-04-20T10:15:37.303Z,5.00
2023-04-20T10:16:39.463Z,4.83
2023-04-20T10:17:44.236Z,4.47
2023-04-20T10:18:58.359Z,4.33
2023-04-20T10:20:01.981Z,4.10
2023-04-20T10:21:15.807Z,5.03
2023-04-20T10:22:33.856Z,4.70
2023-04-20T10:23:36.393Z,5.10
2023-04-20T10:24:48.872Z,5.10
2023-04-20T10:26:00.206Z,4.60
2023-04-20T10:27:07.299Z,4.87
2023-04-20T10:28:13.722Z,4.53
2023-04-20T10:29:27.682Z,4.20
2023-04-20T10:30:41.533Z,4.63
2023-04-20T10:31:47.829Z,4.37
2023-04-20T10:32:49.720Z,4.30
2023-04-20T10:35:11.997Z,4.63
2023-04-20T10:36:31.726Z,5.07
2023-04-20T10:37:36.526Z,4.50
2023-04-20T10:38:38.360Z,5.47
2023-04-20T10:39:55.518Z,5.37
2023-04-20T10:40:58.046Z,5.03
2023-04-20T10:42:01.325Z,5.00
2023-04-20T10:43:03.013Z,4.83
2023-04-20T10:44:08.927Z,5.90
2023-04-20T10:45:13.807Z,4.73
2023-04-20T10:46:19.202Z,5.03
2023-04-20T10:47:27.862Z,4.63
2023-04-20T10:48:29.618Z,4.80
2023-04-20T10:49:34.832Z,4.77
2023-04-20T10:50:38.879Z,4.70
2023-04-20T10:51:46.674Z,4.40
2023-04-20T10:52:49.878Z,4.97
2023-04-20T10:54:07.962Z,5.00
2023-04-20T10:55:22.936Z,4.70
2023-04-20T10:56:25.204Z,5.13
2023-04-20T10:57:26.703Z,5.43
2023-04-20T10:58:28.428Z,4.77
2023-04-20T10:59:30.032Z,4.93
2023-04-20T11:00:31.625Z,4.90
2023-04-20T11:01:33.409Z,4.53
2023-04-20T11:02:37.098Z,5.07
2023-04-20T11:03:39.068Z,4.50
2023-04-20T11:04:40.952Z,4.63
2023-04-20T11:05:42.741Z,4.60
2023-04-20T11:06:45.202Z,4.43
2023-04-20T11:07:56.254Z,4.70
2023-04-20T11:08:57.829Z,4.63
2023-04-20T11:09:59.366Z,4.43
2023-04-20T11:11:00.914Z,4.90
2023-04-20T11:12:04.023Z,4.30
2023-04-20T11:13:05.881Z,4.10
2023-04-20T11:14:11.041Z,4.53
2023-04-20T11:15:13.749Z,5.50
2023-04-20T11:16:16.769Z,4.60
2023-04-20T11:17:18.782Z,4.57
2023-04-20T11:18:21.581Z,4.87
2023-04-20T11:19:24.411Z,4.93
2023-04-20T11:20:26.148Z,4.80
2023-04-20T11:21:38.282Z,4.20
2023-04-20T11:22:40.483Z,4.20
2023-04-20T11:23:43.666Z,3.77
2023-04-20T11:24:45.364Z,3.87
2023-04-20T11:25:53.869Z,4.03
2023-04-20T11:26:56.238Z,3.87
2023-04-20T11:28:10.152Z,4.03
2023-04-20T11:29:12.066Z,3.97
2023-04-20T11:30:14.162Z,4.20
2023-04-20T11:31:18.735Z,3.93
2023-04-20T11:32:35.902Z,3.60
2023-04-20T11:33:38.020Z,4.03
2023-04-20T11:34:39.985Z,4.17
2023-04-20T11:35:42.283Z,4.60
2023-04-20T11:36:43.652Z,4.50
2023-04-20T11:37:48.956Z,4.90
2023-04-20T11:38:50.837Z,4.90
2023-04-20T11:40:02.700Z,5.50
2023-04-20T11:41:07.866Z,4.80
2023-04-20T11:42:09.752Z,5.43
2023-04-20T11:43:11.481Z,5.07
2023-04-20T11:44:15.729Z,5.80
2023-04-20T11:45:20.204Z,5.43
2023-04-20T11:46:26.003Z,5.77
2023-04-20T11:47:28.050Z,5.17
2023-04-20T11:48:32.659Z,5.63
2023-04-20T11:49:34.609Z,5.57
2023-04-20T11:50:48.876Z,5.23
2023-04-20T11:51:53.178Z,4.87
2023-04-20T11:53:17.895Z,5.50
2023-04-20T11:54:29.848Z,5.33
2023-04-20T11:55:38.973Z,5.00
2023-04-20T11:56:42.601Z,5.07
2023-04-20T11:57:44.395Z,5.13
2023-04-20T11:58:46.365Z,5.53
2023-04-20T11:59:49.169Z,5.30
2023-04-20T12:00:53.063Z,5.27
2023-04-20T12:01:57.101Z,5.00
2023-04-20T12:03:00.152Z,5.50
2023-04-20T12:04:02.633Z,5.73
2023-04-20T12:05:04.635Z,5.20
2023-04-20T12:06:06.268Z,5.20
2023-04-20T12:07:07.821Z,4.93
2023-04-20T12:08:09.744Z,5.27
2023-04-20T12:09:11.449Z,5.23
2023-04-20T12:10:13.913Z,4.93
2023-04-20T12:11:18.481Z,4.77
2023-04-20T12:12:19.836Z,5.27
2023-04-20T12:13:21.159Z,5.07
2023-04-20T12:14:22.496Z,5.07
2023-04-20T12:15:24.512Z,5.37
2023-04-20T12:16:26.028Z,5.33
2023-04-20T12:17:27.432Z,5.87
2023-04-20T12:18:28.863Z,6.50
2023-04-20T12:19:30.582Z,6.83
2023-04-20T12:20:31.996Z,7.00
2023-04-20T12:21:33.354Z,7.33
2023-04-20T12:22:34.904Z,7.30
2023-04-20T12:23:39.265Z,6.90
2023-04-20T12:24:40.641Z,7.07
2023-04-20T12:25:43.035Z,6.50
2023-04-20T12:26:44.374Z,6.40
2023-04-20T12:27:47.145Z,5.73
2023-04-20T12:28:49.447Z,5.80
2023-04-20T12:29:51.331Z,6.47
2023-04-20T12:30:52.770Z,6.70
2023-04-20T12:31:54.136Z,6.37
2023-04-20T12:32:55.826Z,6.40
2023-04-20T12:33:57.145Z,6.30
2023-04-20T12:34:59.155Z,6.23
2023-04-20T12:36:00.456Z,6.17
2023-04-20T12:37:02.137Z,6.20
2023-04-20T12:38:03.472Z,6.43
2023-04-20T12:39:04.850Z,6.60
2023-04-20T12:40:07.088Z,6.20
2023-04-20T12:41:08.468Z,6.47
2023-04-20T12:42:10.393Z,6.70
2023-04-20T12:43:11.695Z,6.03
2023-04-20T12:44:13.215Z,6.40
2023-04-20T12:45:14.588Z,6.53
2023-04-20T12:46:15.991Z,6.50
2023-04-20T12:47:17.342Z,6.40
2023-04-20T12:48:18.682Z,6.83
2023-04-20T12:49:20.873Z,6.70
2023-04-20T12:50:22.403Z,6.03
2023-04-20T12:51:23.715Z,6.07
2023-04-20T12:52:25.195Z,6.17
2023-04-20T12:53:26.754Z,6.77
2023-04-20T12:54:28.779Z,7.00
2023-04-20T12:55:57.537Z,6.60
2023-04-20T12:57:03.439Z,6.57
2023-04-20T12:58:04.818Z,6.07
2023-04-20T12:59:07.141Z,6.23
2023-04-20T13:00:08.838Z,6.30
2023-04-20T13:01:10.324Z,5.77
2023-04-20T13:02:11.993Z,6.10
2023-04-20T13:03:13.468Z,5.70
2023-04-20T13:04:16.129Z,5.47
2023-04-20T13:05:17.808Z,6.47
2023-04-20T13:06:19.164Z,6.10
2023-04-20T13:07:20.488Z,6.40
2023-04-20T13:08:21.940Z,5.40
2023-04-20T13:09:26.833Z,6.37
2023-04-20T13:10:28.384Z,6.10
2023-04-20T13:11:30.338Z,5.63
2023-04-20T13:12:31.794Z,5.80
2023-04-20T13:13:33.131Z,5.93
2023-04-20T13:14:34.466Z,6.03
2023-04-20T13:15:39.227Z,5.90
2023-04-20T13:16:41.130Z,6.00
2023-04-20T13:17:42.542Z,5.93
2023-04-20T13:18:43.978Z,5.67
2023-04-20T13:19:48.657Z,6.10
2023-04-20T13:20:50.106Z,6.20
2023-04-20T13:21:51.411Z,6.27
2023-04-20T13:22:57.894Z,5.87
2023-04-20T13:23:59.786Z,6.07
2023-04-20T13:25:01.142Z,6.03
2023-04-20T13:26:02.501Z,5.63
2023-04-20T13:27:04.483Z,6.40
2023-04-20T13:28:06.200Z,6.20
2023-04-20T13:29:07.864Z,6.50
2023-04-20T13:30:09.546Z,6.30
2023-04-20T13:31:11.658Z,6.10
2023-04-20T13:32:13.614Z,6.13
2023-04-20T13:33:15.196Z,6.17
2023-04-20T13:34:17.281Z,5.87
2023-04-20T13:35:19.071Z,6.03
2023-04-20T13:36:21.467Z,6.00
2023-04-20T13:37:22.936Z,6.40
2023-04-20T13:38:24.343Z,6.10
2023-04-20T13:39:27.700Z,6.20
2023-04-20T13:40:29.157Z,5.63
2023-04-20T13:41:30.502Z,5.80
2023-04-20T13:42:31.791Z,6.00
2023-04-20T13:43:33.136Z,6.10
2023-04-20T13:44:35.410Z,6.27
2023-04-20T13:45:36.786Z,6.00
2023-04-20T13:46:38.181Z,5.87
2023-04-20T13:47:40.057Z,6.17
2023-04-20T13:48:41.638Z,6.10
2023-04-20T13:49:42.967Z,5.90
2023-04-20T13:50:44.417Z,6.20
2023-04-20T13:51:46.288Z,6.07
2023-04-20T13:52:47.631Z,5.80
2023-04-20T13:53:49.153Z,5.60
2023-04-20T13:54:50.589Z,6.10
2023-04-20T13:55:52.127Z,6.73
2023-04-20T13:56:53.435Z,6.37
2023-04-20T13:57:54.761Z,6.60
2023-04-20T13:58:58.355Z,6.13